sensor_id;sensor_type;location;lat;lon;timestamp;P1;durP1;ratioP1;P2;durP2;ratioP2
2019;SDS011;1014;51.960;8.542;2023-08-30T00:00:19;30.47;;;28.37;;
2019;SDS011;1014;51.960;8.542;2023-08-30T00:02:47;33.60;;;31.20;;
2019;SDS011;1014;51.960;8.542;2023-08-30T00:05:16;32.10;;;30.00;;
2019;SDS011;1014;51.960;8.542;2023-08-30T00:07:43;30.47;;;28.37;;
2019;SDS011;1014;51.960;8.542;2023-08-30T00:10:10;30.90;;;28.47;;
2019;SDS011;1014;51.960;8.542;2023-08-30T00:12:37;32.87;;;30.37;;
2019;SDS011;1014;51.960;8.542;2023-08-30T00:15:06;30.83;;;28.50;;
2019;SDS011;1014;51.960;8.542;2023-08-30T00:17:34;32.40;;;30.20;;
2019;SDS011;1014;51.960;8.542;2023-08-30T00:20:01;30.90;;;28.90;;
2019;SDS011;1014;51.960;8.542;2023-08-30T00:22:28;31.23;;;29.03;;
2019;SDS011;1014;51.960;8.542;2023-08-30T00:24:56;31.80;;;29.00;;
2019;SDS011;1014;51.960;8.542;2023-08-30T00:27:23;32.60;;;29.93;;
2019;SDS011;1014;51.960;8.542;2023-08-30T00:29:50;29.37;;;27.47;;
2019;SDS011;1014;51.960;8.542;2023-08-30T00:32:18;31.83;;;29.73;;
2019;SDS011;1014;51.960;8.542;2023-08-30T00:34:46;33.03;;;30.53;;
2019;SDS011;1014;51.960;8.542;2023-08-30T00:37:13;30.33;;;28.33;;
2019;SDS011;1014;51.960;8.542;2023-08-30T00:39:40;31.17;;;29.07;;
2019;SDS011;1014;51.960;8.542;2023-08-30T00:42:07;33.13;;;30.63;;
2019;SDS011;1014;51.960;8.542;2023-08-30T00:44:34;32.17;;;29.77;;
2019;SDS011;1014;51.960;8.542;2023-08-30T00:47:01;30.47;;;28.30;;
2019;SDS011;1014;51.960;8.542;2023-08-30T00:49:30;31.43;;;29.23;;
2019;SDS011;1014;51.960;8.542;2023-08-30T00:51:57;29.80;;;27.60;;
2019;SDS011;1014;51.960;8.542;2023-08-30T00:54:25;32.80;;;30.50;;
2019;SDS011;1014;51.960;8.542;2023-08-30T00:56:52;31.80;;;29.60;;
2019;SDS011;1014;51.960;8.542;2023-08-30T00:59:21;32.00;;;29.70;;
2019;SDS011;1014;51.960;8.542;2023-08-30T01:01:48;30.80;;;28.70;;
2019;SDS011;1014;51.960;8.542;2023-08-30T01:04:15;32.00;;;29.50;;
2019;SDS011;1014;51.960;8.542;2023-08-30T01:06:45;32.07;;;29.70;;
2019;SDS011;1014;51.960;8.542;2023-08-30T01:09:13;32.33;;;29.80;;
2019;SDS011;1014;51.960;8.542;2023-08-30T01:11:42;31.37;;;29.10;;
2019;SDS011;1014;51.960;8.542;2023-08-30T01:14:12;31.63;;;29.13;;
2019;SDS011;1014;51.960;8.542;2023-08-30T01:16:40;32.83;;;29.90;;
2019;SDS011;1014;51.960;8.542;2023-08-30T01:19:13;29.53;;;27.57;;
2019;SDS011;1014;51.960;8.542;2023-08-30T01:21:48;29.70;;;27.60;;
2019;SDS011;1014;51.960;8.542;2023-08-30T01:24:18;28.77;;;26.97;;
2019;SDS011;1014;51.960;8.542;2023-08-30T01:26:58;31.13;;;28.93;;
2019;SDS011;1014;51.960;8.542;2023-08-30T01:29:25;30.53;;;28.43;;
2019;SDS011;1014;51.960;8.542;2023-08-30T01:31:53;31.07;;;28.97;;
2019;SDS011;1014;51.960;8.542;2023-08-30T01:34:21;31.70;;;29.43;;
2019;SDS011;1014;51.960;8.542;2023-08-30T01:36:48;31.20;;;29.00;;
2019;SDS011;1014;51.960;8.542;2023-08-30T01:39:15;31.00;;;28.80;;
2019;SDS011;1014;51.960;8.542;2023-08-30T01:41:43;28.57;;;26.73;;
2019;SDS011;1014;51.960;8.542;2023-08-30T01:44:11;29.87;;;27.77;;
2019;SDS011;1014;51.960;8.542;2023-08-30T01:46:41;30.00;;;27.63;;
2019;SDS011;1014;51.960;8.542;2023-08-30T01:49:08;30.60;;;28.50;;
2019;SDS011;1014;51.960;8.542;2023-08-30T01:51:36;30.87;;;28.60;;
2019;SDS011;1014;51.960;8.542;2023-08-30T01:54:03;30.47;;;28.03;;
2019;SDS011;1014;51.960;8.542;2023-08-30T01:56:31;30.23;;;28.03;;
2019;SDS011;1014;51.960;8.542;2023-08-30T01:58:58;29.60;;;27.50;;
2019;SDS011;1014;51.960;8.542;2023-08-30T02:01:26;30.00;;;27.80;;
2019;SDS011;1014;51.960;8.542;2023-08-30T02:03:53;28.73;;;26.83;;
2019;SDS011;1014;51.960;8.542;2023-08-30T02:06:21;28.70;;;26.90;;
2019;SDS011;1014;51.960;8.542;2023-08-30T02:08:51;28.50;;;26.60;;
2019;SDS011;1014;51.960;8.542;2023-08-30T02:11:22;28.57;;;26.57;;
2019;SDS011;1014;51.960;8.542;2023-08-30T02:13:50;29.80;;;27.80;;
2019;SDS011;1014;51.960;8.542;2023-08-30T02:16:17;29.60;;;27.50;;
2019;SDS011;1014;51.960;8.542;2023-08-30T02:18:46;28.90;;;26.90;;
2019;SDS011;1014;51.960;8.542;2023-08-30T02:21:13;28.23;;;26.23;;
2019;SDS011;1014;51.960;8.542;2023-08-30T02:23:41;27.97;;;26.00;;
2019;SDS011;1014;51.960;8.542;2023-08-30T02:26:08;30.40;;;27.80;;
2019;SDS011;1014;51.960;8.542;2023-08-30T02:28:35;28.30;;;26.30;;
2019;SDS011;1014;51.960;8.542;2023-08-30T02:31:03;28.93;;;26.93;;
2019;SDS011;1014;51.960;8.542;2023-08-30T02:33:30;27.40;;;25.50;;
2019;SDS011;1014;51.960;8.542;2023-08-30T02:35:59;30.10;;;27.63;;
2019;SDS011;1014;51.960;8.542;2023-08-30T02:38:26;28.60;;;26.60;;
2019;SDS011;1014;51.960;8.542;2023-08-30T02:40:53;28.40;;;26.37;;
2019;SDS011;1014;51.960;8.542;2023-08-30T02:43:20;27.80;;;25.80;;
2019;SDS011;1014;51.960;8.542;2023-08-30T02:45:47;28.20;;;26.40;;
2019;SDS011;1014;51.960;8.542;2023-08-30T02:48:14;29.30;;;27.20;;
2019;SDS011;1014;51.960;8.542;2023-08-30T02:50:41;28.30;;;26.50;;
2019;SDS011;1014;51.960;8.542;2023-08-30T02:53:10;29.13;;;27.13;;
2019;SDS011;1014;51.960;8.542;2023-08-30T02:55:37;29.70;;;27.40;;
2019;SDS011;1014;51.960;8.542;2023-08-30T02:58:04;27.93;;;26.07;;
2019;SDS011;1014;51.960;8.542;2023-08-30T03:00:31;28.70;;;26.70;;
2019;SDS011;1014;51.960;8.542;2023-08-30T03:02:59;29.23;;;27.13;;
2019;SDS011;1014;51.960;8.542;2023-08-30T03:05:27;29.27;;;27.27;;
2019;SDS011;1014;51.960;8.542;2023-08-30T03:07:54;29.57;;;27.67;;
2019;SDS011;1014;51.960;8.542;2023-08-30T03:10:22;28.40;;;26.40;;
2019;SDS011;1014;51.960;8.542;2023-08-30T03:12:50;28.70;;;26.70;;
2019;SDS011;1014;51.960;8.542;2023-08-30T03:15:17;27.83;;;25.93;;
2019;SDS011;1014;51.960;8.542;2023-08-30T03:17:44;29.17;;;27.23;;
2019;SDS011;1014;51.960;8.542;2023-08-30T03:20:11;29.80;;;27.73;;
2019;SDS011;1014;51.960;8.542;2023-08-30T03:22:38;29.53;;;27.53;;
2019;SDS011;1014;51.960;8.542;2023-08-30T03:25:05;28.67;;;26.67;;
2019;SDS011;1014;51.960;8.542;2023-08-30T03:27:35;30.10;;;27.50;;
2019;SDS011;1014;51.960;8.542;2023-08-30T03:30:02;30.63;;;28.53;;
2019;SDS011;1014;51.960;8.542;2023-08-30T03:32:31;28.80;;;26.80;;
2019;SDS011;1014;51.960;8.542;2023-08-30T03:34:58;27.90;;;26.00;;
2019;SDS011;1014;51.960;8.542;2023-08-30T03:37:25;27.87;;;25.77;;
2019;SDS011;1014;51.960;8.542;2023-08-30T03:39:52;28.43;;;26.53;;
2019;SDS011;1014;51.960;8.542;2023-08-30T03:42:19;28.10;;;26.30;;
2019;SDS011;1014;51.960;8.542;2023-08-30T03:44:48;28.37;;;26.37;;
2019;SDS011;1014;51.960;8.542;2023-08-30T03:47:15;29.40;;;27.40;;
2019;SDS011;1014;51.960;8.542;2023-08-30T03:49:43;29.27;;;27.37;;
2019;SDS011;1014;51.960;8.542;2023-08-30T03:52:10;29.10;;;27.17;;
2019;SDS011;1014;51.960;8.542;2023-08-30T03:54:38;30.40;;;28.20;;
2019;SDS011;1014;51.960;8.542;2023-08-30T03:57:05;30.07;;;27.97;;
2019;SDS011;1014;51.960;8.542;2023-08-30T03:59:32;30.90;;;28.80;;
2019;SDS011;1014;51.960;8.542;2023-08-30T04:02:00;29.13;;;27.23;;
2019;SDS011;1014;51.960;8.542;2023-08-30T04:04:27;28.50;;;26.47;;
2019;SDS011;1014;51.960;8.542;2023-08-30T04:06:54;30.30;;;28.10;;
2019;SDS011;1014;51.960;8.542;2023-08-30T04:09:21;30.80;;;28.60;;
2019;SDS011;1014;51.960;8.542;2023-08-30T04:11:48;28.03;;;26.17;;
2019;SDS011;1014;51.960;8.542;2023-08-30T04:14:16;29.23;;;27.23;;
2019;SDS011;1014;51.960;8.542;2023-08-30T04:16:43;29.33;;;27.23;;
2019;SDS011;1014;51.960;8.542;2023-08-30T04:19:12;29.40;;;27.20;;
2019;SDS011;1014;51.960;8.542;2023-08-30T04:21:39;28.37;;;26.40;;
2019;SDS011;1014;51.960;8.542;2023-08-30T04:24:06;32.37;;;29.77;;
2019;SDS011;1014;51.960;8.542;2023-08-30T04:26:33;29.83;;;27.80;;
2019;SDS011;1014;51.960;8.542;2023-08-30T04:29:00;30.23;;;28.23;;
2019;SDS011;1014;51.960;8.542;2023-08-30T04:31:28;30.17;;;28.00;;
2019;SDS011;1014;51.960;8.542;2023-08-30T04:33:55;29.83;;;27.73;;
2019;SDS011;1014;51.960;8.542;2023-08-30T04:36:23;28.53;;;26.53;;
2019;SDS011;1014;51.960;8.542;2023-08-30T04:38:50;30.80;;;28.40;;
2019;SDS011;1014;51.960;8.542;2023-08-30T04:41:18;29.27;;;27.20;;
2019;SDS011;1014;51.960;8.542;2023-08-30T04:43:45;30.37;;;28.20;;
2019;SDS011;1014;51.960;8.542;2023-08-30T04:46:12;30.10;;;27.80;;
2019;SDS011;1014;51.960;8.542;2023-08-30T04:48:39;30.30;;;28.00;;
2019;SDS011;1014;51.960;8.542;2023-08-30T04:51:07;29.90;;;27.80;;
2019;SDS011;1014;51.960;8.542;2023-08-30T04:53:35;30.70;;;28.70;;
2019;SDS011;1014;51.960;8.542;2023-08-30T04:56:09;29.90;;;27.70;;
2019;SDS011;1014;51.960;8.542;2023-08-30T04:58:37;30.77;;;28.37;;
2019;SDS011;1014;51.960;8.542;2023-08-30T05:01:04;30.03;;;27.83;;
2019;SDS011;1014;51.960;8.542;2023-08-30T05:03:31;30.27;;;27.97;;
2019;SDS011;1014;51.960;8.542;2023-08-30T05:05:59;27.90;;;25.90;;
2019;SDS011;1014;51.960;8.542;2023-08-30T05:08:26;28.80;;;26.63;;
2019;SDS011;1014;51.960;8.542;2023-08-30T05:10:54;28.87;;;26.97;;
2019;SDS011;1014;51.960;8.542;2023-08-30T05:13:21;29.77;;;27.50;;
2019;SDS011;1014;51.960;8.542;2023-08-30T05:15:48;29.20;;;27.20;;
2019;SDS011;1014;51.960;8.542;2023-08-30T05:18:16;29.70;;;27.60;;
2019;SDS011;1014;51.960;8.542;2023-08-30T05:20:43;28.60;;;26.60;;
2019;SDS011;1014;51.960;8.542;2023-08-30T05:23:10;30.03;;;27.67;;
2019;SDS011;1014;51.960;8.542;2023-08-30T05:25:37;31.93;;;29.63;;
2019;SDS011;1014;51.960;8.542;2023-08-30T05:28:05;29.77;;;27.67;;
2019;SDS011;1014;51.960;8.542;2023-08-30T05:30:32;29.67;;;27.67;;
2019;SDS011;1014;51.960;8.542;2023-08-30T05:32:59;30.87;;;28.63;;
2019;SDS011;1014;51.960;8.542;2023-08-30T05:35:27;31.13;;;28.77;;
2019;SDS011;1014;51.960;8.542;2023-08-30T05:37:54;29.57;;;27.37;;
2019;SDS011;1014;51.960;8.542;2023-08-30T05:40:21;32.30;;;29.73;;
2019;SDS011;1014;51.960;8.542;2023-08-30T05:42:49;29.37;;;27.37;;
2019;SDS011;1014;51.960;8.542;2023-08-30T05:45:18;32.57;;;30.07;;
2019;SDS011;1014;51.960;8.542;2023-08-30T05:47:45;32.43;;;30.00;;
2019;SDS011;1014;51.960;8.542;2023-08-30T05:50:13;32.53;;;30.23;;
2019;SDS011;1014;51.960;8.542;2023-08-30T05:52:40;30.87;;;28.57;;
2019;SDS011;1014;51.960;8.542;2023-08-30T05:55:09;31.83;;;29.53;;
2019;SDS011;1014;51.960;8.542;2023-08-30T05:57:36;31.67;;;29.10;;
2019;SDS011;1014;51.960;8.542;2023-08-30T06:00:04;31.80;;;29.40;;
2019;SDS011;1014;51.960;8.542;2023-08-30T06:02:32;32.30;;;29.70;;
2019;SDS011;1014;51.960;8.542;2023-08-30T06:05:00;30.50;;;28.30;;
2019;SDS011;1014;51.960;8.542;2023-08-30T06:07:27;31.80;;;29.57;;
2019;SDS011;1014;51.960;8.542;2023-08-30T06:09:54;34.53;;;31.83;;
2019;SDS011;1014;51.960;8.542;2023-08-30T06:12:21;34.90;;;32.30;;
2019;SDS011;1014;51.960;8.542;2023-08-30T06:14:50;32.53;;;30.03;;
2019;SDS011;1014;51.960;8.542;2023-08-30T06:17:17;34.67;;;31.77;;
2019;SDS011;1014;51.960;8.542;2023-08-30T06:19:46;33.83;;;31.00;;
2019;SDS011;1014;51.960;8.542;2023-08-30T06:22:13;33.23;;;30.60;;
2019;SDS011;1014;51.960;8.542;2023-08-30T06:24:40;33.53;;;31.13;;
2019;SDS011;1014;51.960;8.542;2023-08-30T06:27:07;32.37;;;30.00;;
2019;SDS011;1014;51.960;8.542;2023-08-30T06:29:34;33.60;;;31.10;;
2019;SDS011;1014;51.960;8.542;2023-08-30T06:32:01;33.60;;;31.00;;
2019;SDS011;1014;51.960;8.542;2023-08-30T06:34:28;31.73;;;29.43;;
2019;SDS011;1014;51.960;8.542;2023-08-30T06:36:57;33.87;;;31.03;;
2019;SDS011;1014;51.960;8.542;2023-08-30T06:39:24;33.67;;;30.90;;
2019;SDS011;1014;51.960;8.542;2023-08-30T06:41:51;33.03;;;30.43;;
2019;SDS011;1014;51.960;8.542;2023-08-30T06:44:18;36.57;;;33.43;;
2019;SDS011;1014;51.960;8.542;2023-08-30T06:46:46;33.47;;;30.53;;
2019;SDS011;1014;51.960;8.542;2023-08-30T06:49:13;33.67;;;31.07;;
2019;SDS011;1014;51.960;8.542;2023-08-30T06:51:40;33.07;;;30.33;;
2019;SDS011;1014;51.960;8.542;2023-08-30T06:54:09;32.67;;;30.20;;
2019;SDS011;1014;51.960;8.542;2023-08-30T06:56:36;32.87;;;30.27;;
2019;SDS011;1014;51.960;8.542;2023-08-30T06:59:03;32.03;;;29.63;;
2019;SDS011;1014;51.960;8.542;2023-08-30T07:01:30;33.70;;;31.10;;
2019;SDS011;1014;51.960;8.542;2023-08-30T07:03:57;33.53;;;30.93;;
2019;SDS011;1014;51.960;8.542;2023-08-30T07:06:24;33.20;;;30.70;;
2019;SDS011;1014;51.960;8.542;2023-08-30T07:08:54;33.83;;;31.33;;
2019;SDS011;1014;51.960;8.542;2023-08-30T07:11:23;32.40;;;29.97;;
2019;SDS011;1014;51.960;8.542;2023-08-30T07:13:50;34.93;;;32.13;;
2019;SDS011;1014;51.960;8.542;2023-08-30T07:16:17;37.63;;;34.20;;
2019;SDS011;1014;51.960;8.542;2023-08-30T07:18:44;33.20;;;30.87;;
2019;SDS011;1014;51.960;8.542;2023-08-30T07:21:11;33.07;;;30.53;;
2019;SDS011;1014;51.960;8.542;2023-08-30T07:23:38;35.83;;;33.13;;
2019;SDS011;1014;51.960;8.542;2023-08-30T07:26:05;34.93;;;32.23;;
2019;SDS011;1014;51.960;8.542;2023-08-30T07:28:33;39.23;;;36.03;;
2019;SDS011;1014;51.960;8.542;2023-08-30T07:31:04;37.37;;;34.40;;
2019;SDS011;1014;51.960;8.542;2023-08-30T07:33:31;35.03;;;32.30;;
2019;SDS011;1014;51.960;8.542;2023-08-30T07:35:58;37.77;;;34.87;;
2019;SDS011;1014;51.960;8.542;2023-08-30T07:38:25;35.93;;;33.13;;
2019;SDS011;1014;51.960;8.542;2023-08-30T07:40:53;35.77;;;33.07;;
2019;SDS011;1014;51.960;8.542;2023-08-30T07:43:20;38.57;;;35.27;;
2019;SDS011;1014;51.960;8.542;2023-08-30T07:45:48;39.93;;;36.57;;
2019;SDS011;1014;51.960;8.542;2023-08-30T07:48:15;42.03;;;38.13;;
2019;SDS011;1014;51.960;8.542;2023-08-30T07:50:42;40.50;;;36.93;;
2019;SDS011;1014;51.960;8.542;2023-08-30T07:53:09;39.87;;;36.43;;
2019;SDS011;1014;51.960;8.542;2023-08-30T07:55:37;38.00;;;34.80;;
2019;SDS011;1014;51.960;8.542;2023-08-30T07:58:05;38.33;;;35.23;;
2019;SDS011;1014;51.960;8.542;2023-08-30T08:00:33;37.93;;;34.77;;
2019;SDS011;1014;51.960;8.542;2023-08-30T08:03:02;41.63;;;37.90;;
2019;SDS011;1014;51.960;8.542;2023-08-30T08:05:30;38.40;;;35.20;;
2019;SDS011;1014;51.960;8.542;2023-08-30T08:07:59;42.43;;;38.67;;
2019;SDS011;1014;51.960;8.542;2023-08-30T08:10:26;41.47;;;37.60;;
2019;SDS011;1014;51.960;8.542;2023-08-30T08:12:53;39.53;;;36.07;;
2019;SDS011;1014;51.960;8.542;2023-08-30T08:15:20;39.20;;;35.90;;
2019;SDS011;1014;51.960;8.542;2023-08-30T08:17:47;41.20;;;37.80;;
2019;SDS011;1014;51.960;8.542;2023-08-30T08:20:16;41.70;;;38.10;;
2019;SDS011;1014;51.960;8.542;2023-08-30T08:22:43;41.67;;;38.00;;
2019;SDS011;1014;51.960;8.542;2023-08-30T08:25:10;42.33;;;38.83;;
2019;SDS011;1014;51.960;8.542;2023-08-30T08:27:37;42.33;;;38.80;;
2019;SDS011;1014;51.960;8.542;2023-08-30T08:30:05;42.90;;;39.20;;
2019;SDS011;1014;51.960;8.542;2023-08-30T08:32:32;43.30;;;39.20;;
2019;SDS011;1014;51.960;8.542;2023-08-30T08:34:59;44.57;;;40.60;;
2019;SDS011;1014;51.960;8.542;2023-08-30T08:37:27;45.77;;;41.90;;
2019;SDS011;1014;51.960;8.542;2023-08-30T08:39:54;43.23;;;39.37;;
2019;SDS011;1014;51.960;8.542;2023-08-30T08:42:21;43.60;;;39.60;;
2019;SDS011;1014;51.960;8.542;2023-08-30T08:44:50;43.20;;;39.13;;
2019;SDS011;1014;51.960;8.542;2023-08-30T08:47:18;41.50;;;37.57;;
2019;SDS011;1014;51.960;8.542;2023-08-30T08:49:46;39.67;;;36.27;;
2019;SDS011;1014;51.960;8.542;2023-08-30T08:52:13;40.27;;;36.87;;
2019;SDS011;1014;51.960;8.542;2023-08-30T08:54:42;40.03;;;36.53;;
2019;SDS011;1014;51.960;8.542;2023-08-30T08:57:09;39.37;;;35.17;;
2019;SDS011;1014;51.960;8.542;2023-08-30T08:59:36;41.73;;;38.03;;
2019;SDS011;1014;51.960;8.542;2023-08-30T09:02:03;40.27;;;36.77;;
2019;SDS011;1014;51.960;8.542;2023-08-30T09:04:31;41.00;;;37.57;;
2019;SDS011;1014;51.960;8.542;2023-08-30T09:06:58;40.93;;;37.33;;
2019;SDS011;1014;51.960;8.542;2023-08-30T09:09:26;40.30;;;36.87;;
2019;SDS011;1014;51.960;8.542;2023-08-30T09:11:54;42.40;;;38.30;;
2019;SDS011;1014;51.960;8.542;2023-08-30T09:14:21;42.47;;;38.47;;
2019;SDS011;1014;51.960;8.542;2023-08-30T09:16:54;40.87;;;37.40;;
2019;SDS011;1014;51.960;8.542;2023-08-30T09:19:22;39.23;;;35.87;;
2019;SDS011;1014;51.960;8.542;2023-08-30T09:21:52;41.93;;;38.43;;
2019;SDS011;1014;51.960;8.542;2023-08-30T09:24:19;39.17;;;35.97;;
2019;SDS011;1014;51.960;8.542;2023-08-30T09:26:47;41.27;;;37.67;;
2019;SDS011;1014;51.960;8.542;2023-08-30T09:29:16;41.90;;;37.97;;
2019;SDS011;1014;51.960;8.542;2023-08-30T09:31:43;40.73;;;37.43;;
2019;SDS011;1014;51.960;8.542;2023-08-30T09:34:10;42.20;;;38.63;;
2019;SDS011;1014;51.960;8.542;2023-08-30T09:36:38;40.00;;;36.50;;
2019;SDS011;1014;51.960;8.542;2023-08-30T09:39:05;35.67;;;32.77;;
2019;SDS011;1014;51.960;8.542;2023-08-30T09:41:32;39.50;;;36.23;;
2019;SDS011;1014;51.960;8.542;2023-08-30T09:43:59;38.20;;;35.07;;
2019;SDS011;1014;51.960;8.542;2023-08-30T09:46:34;37.27;;;34.27;;
2019;SDS011;1014;51.960;8.542;2023-08-30T09:49:06;36.53;;;33.63;;
2019;SDS011;1014;51.960;8.542;2023-08-30T09:51:33;32.83;;;30.40;;
2019;SDS011;1014;51.960;8.542;2023-08-30T09:54:02;35.70;;;32.90;;
2019;SDS011;1014;51.960;8.542;2023-08-30T09:56:31;35.40;;;32.70;;
2019;SDS011;1014;51.960;8.542;2023-08-30T09:58:59;34.10;;;31.60;;
2019;SDS011;1014;51.960;8.542;2023-08-30T10:01:26;34.07;;;31.57;;
2019;SDS011;1014;51.960;8.542;2023-08-30T10:03:55;36.00;;;33.30;;
2019;SDS011;1014;51.960;8.542;2023-08-30T10:06:23;34.80;;;32.20;;
2019;SDS011;1014;51.960;8.542;2023-08-30T10:08:51;35.27;;;32.60;;
2019;SDS011;1014;51.960;8.542;2023-08-30T10:11:18;34.40;;;31.80;;
2019;SDS011;1014;51.960;8.542;2023-08-30T10:13:46;32.90;;;30.33;;
2019;SDS011;1014;51.960;8.542;2023-08-30T10:16:15;29.40;;;27.20;;
2019;SDS011;1014;51.960;8.542;2023-08-30T10:18:42;30.37;;;28.17;;
2019;SDS011;1014;51.960;8.542;2023-08-30T10:21:11;32.20;;;29.90;;
2019;SDS011;1014;51.960;8.542;2023-08-30T10:23:39;33.07;;;30.47;;
2019;SDS011;1014;51.960;8.542;2023-08-30T10:26:06;30.33;;;28.33;;
2019;SDS011;1014;51.960;8.542;2023-08-30T10:28:34;30.80;;;28.53;;
2019;SDS011;1014;51.960;8.542;2023-08-30T10:31:02;31.80;;;29.50;;
2019;SDS011;1014;51.960;8.542;2023-08-30T10:33:29;29.70;;;27.33;;
2019;SDS011;1014;51.960;8.542;2023-08-30T10:36:02;28.33;;;26.43;;
2019;SDS011;1014;51.960;8.542;2023-08-30T10:38:32;27.50;;;25.77;;
2019;SDS011;1014;51.960;8.542;2023-08-30T10:41:06;27.90;;;26.10;;
2019;SDS011;1014;51.960;8.542;2023-08-30T10:43:33;27.07;;;25.07;;
2019;SDS011;1014;51.960;8.542;2023-08-30T10:46:01;26.90;;;24.77;;
2019;SDS011;1014;51.960;8.542;2023-08-30T10:48:35;26.13;;;24.13;;
2019;SDS011;1014;51.960;8.542;2023-08-30T10:51:02;26.80;;;25.10;;
2019;SDS011;1014;51.960;8.542;2023-08-30T10:53:31;26.40;;;24.70;;
2019;SDS011;1014;51.960;8.542;2023-08-30T10:56:11;26.83;;;25.20;;
2019;SDS011;1014;51.960;8.542;2023-08-30T10:58:39;29.00;;;27.07;;
2019;SDS011;1014;51.960;8.542;2023-08-30T11:01:07;26.87;;;24.67;;
2019;SDS011;1014;51.960;8.542;2023-08-30T11:03:36;27.90;;;26.00;;
2019;SDS011;1014;51.960;8.542;2023-08-30T11:06:03;26.13;;;24.27;;
2019;SDS011;1014;51.960;8.542;2023-08-30T11:08:31;25.40;;;23.80;;
2019;SDS011;1014;51.960;8.542;2023-08-30T11:11:02;26.57;;;24.70;;
2019;SDS011;1014;51.960;8.542;2023-08-30T11:13:30;24.93;;;23.33;;
2019;SDS011;1014;51.960;8.542;2023-08-30T11:15:59;25.50;;;23.90;;
2019;SDS011;1014;51.960;8.542;2023-08-30T11:18:28;24.27;;;22.77;;
2019;SDS011;1014;51.960;8.542;2023-08-30T11:20:59;25.33;;;23.73;;
2019;SDS011;1014;51.960;8.542;2023-08-30T11:23:26;24.00;;;22.50;;
2019;SDS011;1014;51.960;8.542;2023-08-30T11:25:55;25.67;;;24.07;;
2019;SDS011;1014;51.960;8.542;2023-08-30T11:28:22;25.50;;;23.90;;
2019;SDS011;1014;51.960;8.542;2023-08-30T11:30:49;26.37;;;24.77;;
2019;SDS011;1014;51.960;8.542;2023-08-30T11:33:17;25.23;;;23.73;;
2019;SDS011;1014;51.960;8.542;2023-08-30T11:35:44;24.97;;;23.47;;
2019;SDS011;1014;51.960;8.542;2023-08-30T11:38:13;24.43;;;22.73;;
2019;SDS011;1014;51.960;8.542;2023-08-30T11:40:40;27.13;;;25.33;;
2019;SDS011;1014;51.960;8.542;2023-08-30T11:43:09;26.27;;;24.40;;
2019;SDS011;1014;51.960;8.542;2023-08-30T11:45:36;25.63;;;24.03;;
2019;SDS011;1014;51.960;8.542;2023-08-30T11:48:03;25.30;;;23.63;;
2019;SDS011;1014;51.960;8.542;2023-08-30T11:50:31;26.07;;;24.30;;
2019;SDS011;1014;51.960;8.542;2023-08-30T11:52:58;25.77;;;23.80;;
2019;SDS011;1014;51.960;8.542;2023-08-30T11:55:25;24.87;;;23.27;;
2019;SDS011;1014;51.960;8.542;2023-08-30T11:57:53;25.20;;;23.70;;
2019;SDS011;1014;51.960;8.542;2023-08-30T12:00:21;25.57;;;23.90;;
2019;SDS011;1014;51.960;8.542;2023-08-30T12:02:49;23.43;;;21.93;;
2019;SDS011;1014;51.960;8.542;2023-08-30T12:05:16;24.60;;;23.10;;
2019;SDS011;1014;51.960;8.542;2023-08-30T12:07:45;25.23;;;23.53;;
2019;SDS011;1014;51.960;8.542;2023-08-30T12:10:12;24.63;;;23.13;;
2019;SDS011;1014;51.960;8.542;2023-08-30T12:12:44;25.60;;;23.73;;
2019;SDS011;1014;51.960;8.542;2023-08-30T12:15:11;24.93;;;23.40;;
2019;SDS011;1014;51.960;8.542;2023-08-30T12:17:40;25.13;;;23.47;;
2019;SDS011;1014;51.960;8.542;2023-08-30T12:20:14;25.77;;;24.10;;
2019;SDS011;1014;51.960;8.542;2023-08-30T12:22:42;26.20;;;24.60;;
2019;SDS011;1014;51.960;8.542;2023-08-30T12:25:15;25.10;;;23.60;;
2019;SDS011;1014;51.960;8.542;2023-08-30T12:27:43;25.20;;;23.57;;
2019;SDS011;1014;51.960;8.542;2023-08-30T12:30:10;24.90;;;23.30;;
2019;SDS011;1014;51.960;8.542;2023-08-30T12:32:38;24.37;;;22.97;;
2019;SDS011;1014;51.960;8.542;2023-08-30T12:35:06;24.70;;;23.20;;
2019;SDS011;1014;51.960;8.542;2023-08-30T12:37:34;24.73;;;23.23;;
2019;SDS011;1014;51.960;8.542;2023-08-30T12:40:01;25.73;;;24.03;;
2019;SDS011;1014;51.960;8.542;2023-08-30T12:42:28;26.30;;;24.60;;
2019;SDS011;1014;51.960;8.542;2023-08-30T12:44:55;26.67;;;24.77;;
2019;SDS011;1014;51.960;8.542;2023-08-30T12:47:22;25.30;;;23.70;;
2019;SDS011;1014;51.960;8.542;2023-08-30T12:49:49;28.53;;;26.60;;
2019;SDS011;1014;51.960;8.542;2023-08-30T12:52:17;27.73;;;25.80;;
2019;SDS011;1014;51.960;8.542;2023-08-30T12:54:44;27.67;;;25.80;;
2019;SDS011;1014;51.960;8.542;2023-08-30T12:57:13;28.63;;;26.67;;
2019;SDS011;1014;51.960;8.542;2023-08-30T12:59:40;27.23;;;25.27;;
2019;SDS011;1014;51.960;8.542;2023-08-30T13:02:07;27.70;;;25.90;;
2019;SDS011;1014;51.960;8.542;2023-08-30T13:04:34;27.70;;;25.90;;
2019;SDS011;1014;51.960;8.542;2023-08-30T13:07:03;27.33;;;25.53;;
2019;SDS011;1014;51.960;8.542;2023-08-30T13:09:31;28.70;;;26.77;;
2019;SDS011;1014;51.960;8.542;2023-08-30T13:11:58;28.70;;;26.73;;
2019;SDS011;1014;51.960;8.542;2023-08-30T13:14:26;28.03;;;26.10;;
2019;SDS011;1014;51.960;8.542;2023-08-30T13:16:53;28.67;;;26.67;;
2019;SDS011;1014;51.960;8.542;2023-08-30T13:19:20;27.80;;;25.70;;
2019;SDS011;1014;51.960;8.542;2023-08-30T13:21:47;28.43;;;26.50;;
2019;SDS011;1014;51.960;8.542;2023-08-30T13:24:14;30.13;;;27.93;;
2019;SDS011;1014;51.960;8.542;2023-08-30T13:26:42;31.20;;;28.77;;
2019;SDS011;1014;51.960;8.542;2023-08-30T13:29:10;30.83;;;28.77;;
2019;SDS011;1014;51.960;8.542;2023-08-30T13:31:37;30.37;;;28.23;;
2019;SDS011;1014;51.960;8.542;2023-08-30T13:34:04;29.70;;;27.70;;
2019;SDS011;1014;51.960;8.542;2023-08-30T13:36:31;31.47;;;29.07;;
2019;SDS011;1014;51.960;8.542;2023-08-30T13:38:58;32.70;;;30.30;;
2019;SDS011;1014;51.960;8.542;2023-08-30T13:41:25;33.97;;;31.40;;
2019;SDS011;1014;51.960;8.542;2023-08-30T13:43:53;32.83;;;30.60;;
2019;SDS011;1014;51.960;8.542;2023-08-30T13:46:21;36.30;;;33.70;;
2019;SDS011;1014;51.960;8.542;2023-08-30T13:48:48;38.17;;;35.57;;
2019;SDS011;1014;51.960;8.542;2023-08-30T13:51:20;37.83;;;35.03;;
2019;SDS011;1014;51.960;8.542;2023-08-30T13:53:47;39.43;;;36.10;;
2019;SDS011;1014;51.960;8.542;2023-08-30T13:56:14;41.07;;;37.90;;
2019;SDS011;1014;51.960;8.542;2023-08-30T13:58:41;38.53;;;35.70;;
2019;SDS011;1014;51.960;8.542;2023-08-30T14:01:10;44.43;;;40.60;;
2019;SDS011;1014;51.960;8.542;2023-08-30T14:03:37;46.33;;;42.20;;
2019;SDS011;1014;51.960;8.542;2023-08-30T14:06:04;47.13;;;43.13;;
2019;SDS011;1014;51.960;8.542;2023-08-30T14:08:31;51.33;;;47.10;;
2019;SDS011;1014;51.960;8.542;2023-08-30T14:10:58;46.23;;;42.43;;
2019;SDS011;1014;51.960;8.542;2023-08-30T14:13:26;54.80;;;50.13;;
2019;SDS011;1014;51.960;8.542;2023-08-30T14:15:57;57.07;;;52.47;;
2019;SDS011;1014;51.960;8.542;2023-08-30T14:18:26;61.67;;;56.40;;
2019;SDS011;1014;51.960;8.542;2023-08-30T14:20:55;62.50;;;56.97;;
2019;SDS011;1014;51.960;8.542;2023-08-30T14:23:23;59.87;;;54.83;;
2019;SDS011;1014;51.960;8.542;2023-08-30T14:25:57;65.63;;;59.77;;
2019;SDS011;1014;51.960;8.542;2023-08-30T14:28:24;57.97;;;53.17;;
2019;SDS011;1014;51.960;8.542;2023-08-30T14:30:51;59.10;;;54.50;;
2019;SDS011;1014;51.960;8.542;2023-08-30T14:33:18;61.90;;;57.00;;
2019;SDS011;1014;51.960;8.542;2023-08-30T14:35:46;68.13;;;62.03;;
2019;SDS011;1014;51.960;8.542;2023-08-30T14:38:13;67.30;;;61.20;;
2019;SDS011;1014;51.960;8.542;2023-08-30T14:40:42;77.50;;;70.40;;
2019;SDS011;1014;51.960;8.542;2023-08-30T14:43:09;66.63;;;60.77;;
2019;SDS011;1014;51.960;8.542;2023-08-30T14:45:38;61.17;;;56.13;;
2019;SDS011;1014;51.960;8.542;2023-08-30T14:48:05;60.30;;;55.67;;
2019;SDS011;1014;51.960;8.542;2023-08-30T14:50:33;63.70;;;58.47;;